Ellistown, Mississippi
Current Conditions -  °F | °C
As of 6:55 PM on Saturday 20 Dec 2014 (Local Time) from KCRX Reporting Station
Clear Clear  
Wind Chill: 37°   Ceiling: Unl
Heat Index: 41°   Visibility: 10mi
Dew Point: 32°   Wind: 6mph
Humidity: 70%   Direction: 30°NNE
Pressure: 30.23"   Gusts: NA
Location:  34.5651°N, 88.1896°W
Report Text: KCRX 210055Z AUTO 03005KT 10SM CLR 05/M00 A3023 RMK AO2
Loading
Personal Weather Stations






























Interactive Weather Map New forecast layout! Learn more

10-Day Weather Forecast

Advertisements
Track Severe Weather on mobile